Time;durP1;ratioP1;P1;durP2;ratioP2;P2;SDS_P1;SDS_P2;PMS_P1;PMS_P2;Temp;Humidity;BMP_temperature;BMP_pressure;BME280_temperature;BME280_humidity;BME280_pressure;Samples;Min_cycle;Max_cycle;Signal;HPM_P1;HPM_P2
2021/05/10 00:02:17;;;;;;;3.38;3.08;;;;;;;19.44;62.20;97974.63;5052190;28;20317;-74
2021/05/10 00:04:43;;;;;;;3.70;3.40;;;;;;;19.56;62.06;97972.34;5051960;28;20275;-74
2021/05/10 00:07:09;;;;;;;5.60;3.45;;;;;;;19.52;62.33;97966.38;5052169;28;20276;-74
2021/05/10 00:09:35;;;;;;;4.28;3.72;;;;;;;19.61;61.91;97960.84;5052003;28;20248;-74
2021/05/10 00:12:02;;;;;;;3.40;3.13;;;;;;;19.58;62.17;97962.03;5051801;28;20196;-75
2021/05/10 00:14:39;;;;;;;4.28;3.40;;;;;;;19.41;62.82;97969.56;5051842;28;20814;-74
2021/05/10 00:17:06;;;;;;;5.95;3.15;;;;;;;19.36;63.25;97955.63;5051789;28;20204;-75
2021/05/10 00:19:32;;;;;;;4.70;4.20;;;;;;;19.37;63.28;97946.41;5052236;28;20624;-74
2021/05/10 00:21:58;;;;;;;3.30;3.10;;;;;;;19.35;63.40;97960.22;5051948;28;20223;-74
2021/05/10 00:24:24;;;;;;;3.65;3.35;;;;;;;19.41;63.08;97947.72;5052270;28;20542;-74
2021/05/10 00:26:51;;;;;;;4.50;3.55;;;;;;;19.38;62.96;97954.41;5054643;28;20249;-74
2021/05/10 00:29:18;;;;;;;5.68;3.50;;;;;;;19.38;63.32;97943.50;5055609;28;20223;-74
2021/05/10 00:31:45;;;;;;;6.93;4.28;;;;;;;19.47;63.02;97941.53;5055411;28;20187;-75
2021/05/10 00:34:11;;;;;;;3.95;3.65;;;;;;;19.36;62.88;97929.19;5055203;28;20284;-74
2021/05/10 00:36:37;;;;;;;4.25;3.22;;;;;;;19.44;61.44;97924.69;5055420;28;20246;-75
2021/05/10 00:39:05;;;;;;;3.35;3.05;;;;;;;19.68;59.60;97929.03;5055799;28;20279;-73
2021/05/10 00:41:31;;;;;;;3.70;3.40;;;;;;;19.69;58.87;97931.59;5055082;28;20231;-75
2021/05/10 00:44:00;;;;;;;3.70;3.40;;;;;;;19.66;58.63;97940.13;5055128;28;20446;-74
2021/05/10 00:46:27;;;;;;;3.80;2.88;;;;;;;19.46;60.76;97933.53;5055167;28;20221;-74
2021/05/10 00:48:54;;;;;;;4.60;3.28;;;;;;;19.40;60.56;97928.81;5054992;28;20251;-75
2021/05/10 00:51:20;;;;;;;3.58;3.25;;;;;;;19.30;60.60;97929.91;5055017;28;20275;-75
2021/05/10 00:53:46;;;;;;;4.18;3.38;;;;;;;19.16;61.48;97914.38;5055380;28;20197;-74
2021/05/10 00:56:13;;;;;;;4.38;3.65;;;;;;;19.03;62.45;97922.34;5055272;28;20212;-75
2021/05/10 00:58:40;;;;;;;7.10;3.10;;;;;;;18.82;64.22;97914.84;5054968;28;20191;-75
2021/05/10 01:01:06;;;;;;;4.22;3.90;;;;;;;18.63;65.96;97919.72;5054879;28;21243;-74
2021/05/10 01:03:33;;;;;;;4.78;3.65;;;;;;;18.58;66.46;97910.38;5055262;28;20196;-74
2021/05/10 01:06:00;;;;;;;3.72;3.42;;;;;;;18.50;66.85;97911.31;5054900;28;20292;-74
2021/05/10 01:08:26;;;;;;;3.97;3.65;;;;;;;18.54;66.40;97927.13;5055180;28;20234;-74
2021/05/10 01:10:52;;;;;;;4.20;3.80;;;;;;;18.59;66.58;97926.56;5054942;28;20608;-75
2021/05/10 01:13:20;;;;;;;7.15;3.60;;;;;;;18.67;66.26;97934.66;5054431;28;20209;-73
2021/05/10 01:15:50;;;;;;;5.80;4.35;;;;;;;18.66;65.35;97935.72;5054843;28;20615;-73
2021/05/10 01:18:17;;;;;;;3.70;3.40;;;;;;;18.89;64.65;97943.06;5054921;28;20209;-75
2021/05/10 01:20:47;;;;;;;4.93;4.10;;;;;;;19.08;63.78;97956.19;5054412;28;20204;-74
2021/05/10 01:23:14;;;;;;;5.32;3.80;;;;;;;19.22;63.02;97962.75;5054467;28;20242;-74
2021/05/10 01:25:41;;;;;;;4.00;3.40;;;;;;;19.35;62.74;97970.28;5054579;28;20566;-74
2021/05/10 01:28:07;;;;;;;5.18;3.50;;;;;;;19.23;63.26;97983.53;5054338;28;20262;-74
2021/05/10 01:30:36;;;;;;;5.07;3.88;;;;;;;19.09;63.95;97997.97;5054400;28;20189;-74
2021/05/10 01:33:04;;;;;;;6.35;4.75;;;;;;;18.64;65.68;98018.69;5054280;28;20203;-73
2021/05/10 01:35:32;;;;;;;5.15;4.70;;;;;;;18.46;65.25;98019.81;5054212;28;20187;-75
2021/05/10 01:37:59;;;;;;;4.68;3.90;;;;;;;18.67;63.14;98021.06;5053056;28;20183;-74
2021/05/10 01:40:26;;;;;;;4.05;3.70;;;;;;;18.73;61.87;98018.47;5053583;28;20235;-73
2021/05/10 01:42:53;;;;;;;4.72;3.75;;;;;;;18.85;61.38;98023.53;5053881;28;20276;-74
2021/05/10 01:45:19;;;;;;;3.95;3.47;;;;;;;18.90;60.73;98026.56;5054406;28;20204;-75
2021/05/10 01:47:45;;;;;;;6.30;3.75;;;;;;;19.04;60.05;98023.09;5054286;28;20203;-76
2021/05/10 01:50:13;;;;;;;6.95;4.15;;;;;;;19.13;59.58;98021.13;5053831;28;20295;-74
2021/05/10 01:52:39;;;;;;;5.90;3.60;;;;;;;19.16;59.65;98013.44;5053891;28;20294;-74
2021/05/10 01:55:06;;;;;;;4.70;3.83;;;;;;;19.28;59.28;98019.28;5053259;28;20199;-74
2021/05/10 01:57:34;;;;;;;4.20;3.80;;;;;;;19.25;59.19;98014.22;5054215;28;20685;-74
2021/05/10 02:00:00;;;;;;;3.88;3.33;;;;;;;19.28;59.10;98013.84;5054020;28;20564;-76
2021/05/10 02:02:26;;;;;;;5.65;3.95;;;;;;;19.30;58.87;98009.03;5054086;28;20619;-75
2021/05/10 02:05:12;;;;;;;4.05;3.45;;;;;;;19.35;58.74;98016.69;5053891;28;20291;-74
2021/05/10 02:07:40;;;;;;;3.85;3.53;;;;;;;19.29;58.99;98012.81;5053904;28;20278;-75
2021/05/10 02:10:09;;;;;;;4.32;3.25;;;;;;;19.28;59.06;98016.56;5054067;28;20650;-73
2021/05/10 02:12:36;;;;;;;5.65;3.88;;;;;;;19.33;58.72;98003.25;5053278;28;20616;-74
2021/05/10 02:15:05;;;;;;;4.07;3.60;;;;;;;19.21;59.48;98031.13;5053499;28;20223;-76
2021/05/10 02:17:31;;;;;;;6.15;4.00;;;;;;;19.16;60.08;98037.13;5053093;28;20238;-74
2021/05/10 02:19:57;;;;;;;3.60;3.33;;;;;;;19.14;59.56;98044.66;5053339;28;20204;-75
2021/05/10 02:22:24;;;;;;;4.40;4.00;;;;;;;19.37;58.88;98040.03;5053159;28;20238;-74
2021/05/10 02:24:50;;;;;;;3.95;3.15;;;;;;;19.38;58.98;98046.34;5053473;28;20223;-73
2021/05/10 02:27:17;;;;;;;5.65;3.63;;;;;;;19.32;58.84;98056.09;5053280;28;20205;-74
2021/05/10 02:29:43;;;;;;;4.60;4.20;;;;;;;19.31;59.08;98065.34;5053531;28;20340;-73
2021/05/10 02:32:10;;;;;;;6.73;3.70;;;;;;;19.42;58.86;98080.41;5053491;28;20264;-75
2021/05/10 02:34:36;;;;;;;4.82;3.90;;;;;;;19.48;58.00;98090.59;5053541;28;20833;-74
2021/05/10 02:37:02;;;;;;;4.40;3.47;;;;;;;19.47;57.92;98094.38;5053289;28;20190;-74
2021/05/10 02:39:28;;;;;;;4.05;3.75;;;;;;;19.51;57.54;98108.50;5053083;28;20186;-74
2021/05/10 02:41:54;;;;;;;3.97;3.20;;;;;;;19.59;56.64;98106.56;5052494;28;20330;-75
2021/05/10 02:44:20;;;;;;;3.50;3.20;;;;;;;19.69;56.11;98127.31;5052893;28;20441;-73
2021/05/10 02:46:48;;;;;;;3.58;3.22;;;;;;;19.82;55.19;98123.97;5052840;28;20451;-74
2021/05/10 02:49:14;;;;;;;4.80;3.17;;;;;;;19.83;54.51;98121.06;5052441;28;20276;-74
2021/05/10 02:51:40;;;;;;;6.07;3.13;;;;;;;19.95;53.96;98119.59;5052957;28;20928;-74
2021/05/10 02:54:06;;;;;;;12.40;4.20;;;;;;;20.02;54.00;98124.31;5053001;28;20443;-74
2021/05/10 02:56:32;;;;;;;3.50;3.10;;;;;;;20.15;52.48;98130.84;5052912;28;20503;-75
2021/05/10 02:58:58;;;;;;;3.80;2.67;;;;;;;20.16;52.16;98132.53;5052970;28;20431;-74
2021/05/10 03:01:25;;;;;;;5.40;2.87;;;;;;;20.28;52.40;98143.00;5052842;28;20487;-76
2021/05/10 03:03:51;;;;;;;3.20;2.87;;;;;;;20.17;53.94;98147.91;5052475;28;20449;-74
2021/05/10 03:06:18;;;;;;;4.23;3.10;;;;;;;20.36;52.23;98175.72;5052417;28;20466;-73
2021/05/10 03:08:44;;;;;;;3.90;2.60;;;;;;;20.46;51.14;98197.31;5052842;28;20435;-73
2021/05/10 03:11:10;;;;;;;4.20;2.50;;;;;;;20.41;55.66;98189.69;5052272;28;20519;-74
2021/05/10 03:13:36;;;;;;;3.95;3.00;;;;;;;20.26;57.08;98175.13;5052391;28;20553;-74
2021/05/10 03:16:02;;;;;;;3.08;2.88;;;;;;;20.16;56.24;98172.66;5052629;28;20189;-75
2021/05/10 03:18:28;;;;;;;2.47;2.28;;;;;;;19.87;55.24;98176.16;5052125;28;20212;-74
2021/05/10 03:20:55;;;;;;;4.40;2.97;;;;;;;19.84;56.10;98180.13;5052556;28;20212;-74
2021/05/10 03:23:22;;;;;;;4.65;3.05;;;;;;;19.67;56.76;98170.31;5052339;28;20431;-73
2021/05/10 03:25:48;;;;;;;3.45;2.60;;;;;;;19.70;56.47;98170.84;5052315;28;20210;-74
2021/05/10 03:28:14;;;;;;;2.42;2.20;;;;;;;19.58;56.93;98161.31;5052491;28;20279;-73
2021/05/10 03:30:40;;;;;;;2.75;2.53;;;;;;;19.67;56.96;98165.72;5052500;28;20200;-74
2021/05/10 03:33:07;;;;;;;3.22;2.13;;;;;;;19.65;57.19;98173.25;5052389;28;20184;-74
2021/05/10 03:35:33;;;;;;;3.35;2.50;;;;;;;19.63;57.19;98178.03;5052611;28;20205;-73
2021/05/10 03:38:00;;;;;;;3.65;2.50;;;;;;;19.58;56.73;98178.56;5051990;28;20188;-73
2021/05/10 03:40:26;;;;;;;2.70;2.50;;;;;;;19.63;57.57;98191.69;5052408;28;20358;-73
2021/05/10 03:42:53;;;;;;;5.50;2.50;;;;;;;19.70;56.98;98197.28;5052163;28;20734;-73
2021/05/10 03:45:19;;;;;;;2.88;2.65;;;;;;;19.73;57.00;98200.50;5052126;28;20185;-74
2021/05/10 03:47:45;;;;;;;3.75;2.50;;;;;;;19.75;56.17;98195.72;5052501;28;20196;-74
2021/05/10 03:50:13;;;;;;;3.30;2.65;;;;;;;19.82;56.39;98195.00;5052398;28;20711;-73
2021/05/10 03:52:40;;;;;;;2.38;2.17;;;;;;;19.75;55.86;98213.97;5051732;28;20229;-75
2021/05/10 03:55:09;;;;;;;3.40;2.25;;;;;;;19.72;56.47;98219.81;5052499;28;20201;-73
2021/05/10 03:57:35;;;;;;;4.43;2.60;;;;;;;19.67;55.19;98216.72;5052377;28;20211;-74
2021/05/10 04:00:02;;;;;;;2.63;2.10;;;;;;;19.64;55.79;98217.09;5052034;28;20282;-75
2021/05/10 04:02:28;;;;;;;5.30;3.80;;;;;;;19.60;55.61;98200.22;5055516;28;20231;-74
2021/05/10 04:05:00;;;;;;;5.80;2.90;;;;;;;19.37;56.61;98214.69;5055813;28;20210;-73
2021/05/10 04:07:38;;;;;;;2.95;2.67;;;;;;;19.47;57.10;98233.56;5055692;28;20185;-73
2021/05/10 04:15:35;;;;;;;4.20;2.13;;;;;;;19.46;58.79;98240.06;5055695;28;20242;-73
2021/05/10 04:18:01;;;;;;;4.60;2.20;;;;;;;19.45;58.42;98237.53;5056008;28;20296;-73
2021/05/10 04:20:27;;;;;;;2.72;2.53;;;;;;;19.40;60.54;98242.63;5055392;28;20278;-74
2021/05/10 04:22:53;;;;;;;5.32;2.30;;;;;;;19.40;59.92;98239.91;5055477;28;20231;-74
2021/05/10 04:25:19;;;;;;;3.13;2.38;;;;;;;19.36;61.09;98253.94;5055660;28;20605;-75
2021/05/10 04:27:46;;;;;;;5.13;2.92;;;;;;;19.35;61.80;98268.56;5055724;28;20545;-74
2021/05/10 04:30:15;;;;;;;3.22;2.75;;;;;;;19.34;62.09;98275.09;5055721;28;20299;-75
2021/05/10 04:32:41;;;;;;;3.67;2.80;;;;;;;19.09;62.61;98273.47;5055725;28;20217;-75
2021/05/10 04:35:08;;;;;;;6.88;2.97;;;;;;;18.96;63.99;98276.75;5055439;28;20210;-74
2021/05/10 04:37:35;;;;;;;5.53;3.22;;;;;;;18.95;64.79;98281.38;5055311;28;20192;-75
2021/05/10 04:40:01;;;;;;;3.20;2.60;;;;;;;18.80;65.42;98294.00;5055124;28;20241;-74
2021/05/10 04:42:27;;;;;;;2.40;2.20;;;;;;;18.73;65.83;98299.28;5054797;28;20255;-74
2021/05/10 04:44:53;;;;;;;3.50;2.60;;;;;;;18.62;66.67;98304.22;5054713;28;20234;-74
2021/05/10 04:47:20;;;;;;;3.28;2.80;;;;;;;18.60;66.85;98314.44;5055293;28;20193;-73
2021/05/10 04:49:46;;;;;;;4.72;2.50;;;;;;;18.68;66.41;98300.81;5055054;28;20564;-73
2021/05/10 04:52:13;;;;;;;3.42;2.70;;;;;;;18.73;66.35;98296.53;5054935;28;20324;-73
2021/05/10 04:54:39;;;;;;;8.40;5.90;;;;;;;18.74;67.66;98305.56;5055416;28;20212;-76
2021/05/10 04:57:05;;;;;;;4.47;3.28;;;;;;;18.75;65.98;98299.09;5055052;28;20682;-72
2021/05/10 04:59:31;;;;;;;4.47;2.70;;;;;;;18.75;67.15;98302.69;5055260;28;20188;-75
2021/05/10 05:01:57;;;;;;;3.55;2.90;;;;;;;18.79;67.23;98300.50;5054655;28;20275;-77
2021/05/10 05:04:24;;;;;;;3.60;2.70;;;;;;;18.75;67.35;98296.38;5055303;28;20667;-74
2021/05/10 05:06:51;;;;;;;4.30;3.22;;;;;;;18.71;66.58;98312.22;5055158;28;20251;-74
2021/05/10 05:09:17;;;;;;;5.05;3.00;;;;;;;18.76;67.63;98306.25;5054831;28;20200;-74
2021/05/10 05:11:43;;;;;;;5.85;3.38;;;;;;;18.79;66.47;98308.69;5054798;28;20210;-74
2021/05/10 05:14:09;;;;;;;4.88;3.47;;;;;;;18.80;65.85;98304.06;5054875;28;20195;-74
2021/05/10 05:16:38;;;;;;;3.92;3.05;;;;;;;18.72;66.19;98307.59;5054574;28;20193;-75
2021/05/10 05:19:04;;;;;;;5.78;4.47;;;;;;;18.75;67.31;98305.41;5054751;28;20231;-73
2021/05/10 05:21:31;;;;;;;5.97;3.03;;;;;;;18.83;65.34;98311.88;5054494;28;20328;-74
2021/05/10 05:23:57;;;;;;;3.90;3.60;;;;;;;18.88;66.21;98318.53;5055022;28;20220;-76
2021/05/10 05:26:23;;;;;;;5.78;3.63;;;;;;;18.86;65.64;98327.91;5054969;28;20597;-74
2021/05/10 05:28:50;;;;;;;3.88;3.13;;;;;;;18.83;65.84;98325.53;5060758;28;20238;-74
2021/05/10 05:31:16;;;;;;;5.72;3.85;;;;;;;18.82;65.29;98313.78;5075060;28;20183;-74
2021/05/10 05:33:42;;;;;;;5.45;3.78;;;;;;;18.83;66.17;98320.91;5074711;28;20296;-73
2021/05/10 05:36:09;;;;;;;3.45;3.15;;;;;;;18.97;65.52;98324.81;5075131;28;20589;-74
2021/05/10 05:38:37;;;;;;;5.25;3.10;;;;;;;19.03;64.92;98326.00;5074520;28;20239;-74
2021/05/10 05:41:03;;;;;;;6.10;4.03;;;;;;;19.00;65.07;98320.91;5074759;28;20227;-74
2021/05/10 05:43:29;;;;;;;3.83;3.53;;;;;;;18.93;65.37;98327.06;5075590;28;20210;-73
2021/05/10 05:45:55;;;;;;;4.03;3.22;;;;;;;19.01;64.49;98338.97;5063684;28;20202;-76
2021/05/10 05:48:22;;;;;;;3.97;3.10;;;;;;;18.88;64.77;98342.22;5055081;28;20211;-77
2021/05/10 05:50:48;;;;;;;3.42;3.15;;;;;;;18.92;65.35;98341.69;5054920;28;20192;-73
2021/05/10 05:53:15;;;;;;;7.18;3.50;;;;;;;19.03;64.88;98334.19;5055262;28;20204;-74
2021/05/10 05:55:42;;;;;;;8.20;5.55;;;;;;;18.98;64.53;98361.97;5054660;28;20205;-74
2021/05/10 05:58:08;;;;;;;3.47;3.17;;;;;;;18.96;65.06;98375.78;5054759;28;20192;-73
2021/05/10 06:00:34;;;;;;;8.60;3.60;;;;;;;18.95;65.95;98385.00;5054806;28;20300;-74
2021/05/10 06:03:00;;;;;;;4.55;2.85;;;;;;;18.99;66.49;98377.31;5055062;28;20334;-75
2021/05/10 06:05:26;;;;;;;3.88;3.33;;;;;;;18.95;66.24;98381.44;5054901;28;20275;-75
2021/05/10 06:07:52;;;;;;;3.45;3.17;;;;;;;18.92;66.63;98371.69;5054569;28;20283;-75
2021/05/10 06:10:23;;;;;;;3.92;3.53;;;;;;;18.97;66.64;98368.44;5054258;28;20646;-75
2021/05/10 06:12:51;;;;;;;4.88;3.05;;;;;;;19.02;66.22;98378.88;5054266;28;20188;-73
2021/05/10 06:15:19;;;;;;;5.47;3.70;;;;;;;19.08;65.76;98389.06;5054451;28;20698;-76
2021/05/10 06:17:46;;;;;;;6.43;3.30;;;;;;;19.04;65.68;98384.97;5053702;28;20233;-74
2021/05/10 06:20:13;;;;;;;4.07;3.30;;;;;;;18.90;66.46;98378.34;5054164;28;20679;-73
2021/05/10 06:22:41;;;;;;;4.10;3.00;;;;;;;18.99;65.92;98379.19;5054406;28;20206;-73
2021/05/10 06:25:09;;;;;;;4.07;3.30;;;;;;;19.03;65.83;98370.50;5053809;28;20298;-75
2021/05/10 06:27:35;;;;;;;4.13;3.60;;;;;;;19.11;67.06;98375.94;5053592;28;20550;-71
2021/05/10 06:30:03;;;;;;;3.30;2.90;;;;;;;19.30;65.18;98398.41;5053438;28;20287;-72
2021/05/10 06:32:29;;;;;;;5.53;2.78;;;;;;;19.29;64.86;98399.44;5053584;28;20686;-71
2021/05/10 06:34:55;;;;;;;4.22;2.90;;;;;;;19.10;65.29;98400.66;5053273;28;20220;-70
2021/05/10 06:37:21;;;;;;;5.60;3.15;;;;;;;19.11;66.07;98405.94;5053912;28;20188;-71
2021/05/10 06:39:48;;;;;;;7.63;4.28;;;;;;;19.08;66.53;98410.88;5052796;28;20257;-72
2021/05/10 06:42:14;;;;;;;5.68;3.15;;;;;;;19.10;67.38;98420.59;5053083;28;20236;-72
2021/05/10 06:44:40;;;;;;;5.60;3.33;;;;;;;18.99;66.98;98429.13;5052516;28;20246;-71
2021/05/10 06:47:07;;;;;;;3.03;2.83;;;;;;;18.85;67.84;98417.03;5052789;28;20597;-72
2021/05/10 06:49:34;;;;;;;3.70;3.40;;;;;;;18.75;68.92;98429.97;5052924;28;20283;-72
2021/05/10 06:52:00;;;;;;;3.78;2.20;;;;;;;18.63;68.92;98443.09;5052629;28;20199;-74
2021/05/10 06:54:27;;;;;;;6.10;2.70;;;;;;;18.53;69.40;98437.78;5052207;28;20258;-72
2021/05/10 06:56:53;;;;;;;5.45;2.85;;;;;;;18.63;69.80;98429.47;5052262;28;20188;-73
2021/05/10 06:59:19;;;;;;;2.50;2.30;;;;;;;18.50;69.28;98434.56;5052526;28;20317;-72
2021/05/10 07:01:46;;;;;;;3.85;2.63;;;;;;;18.44;69.41;98444.25;5052460;28;20340;-72
2021/05/10 07:04:13;;;;;;;3.13;2.83;;;;;;;18.49;69.14;98441.84;5049291;28;20203;-71
2021/05/10 07:06:41;;;;;;;3.63;2.95;;;;;;;18.71;69.04;98447.69;5042239;28;20222;-74
2021/05/10 07:09:07;;;;;;;3.70;3.08;;;;;;;18.99;68.89;98428.28;5041963;28;20608;-71
2021/05/10 07:11:34;;;;;;;4.38;2.92;;;;;;;19.31;66.89;98427.38;5041530;28;20200;-70
2021/05/10 07:14:00;;;;;;;2.97;2.67;;;;;;;19.44;65.36;98433.16;5042230;28;20232;-73
2021/05/10 07:16:26;;;;;;;3.42;2.45;;;;;;;19.62;64.09;98419.28;5043196;28;20235;-70
2021/05/10 07:18:54;;;;;;;2.10;1.90;;;;;;;19.49;63.77;98430.78;5041864;28;20288;-72
2021/05/10 07:21:21;;;;;;;3.47;1.85;;;;;;;19.26;65.35;98470.72;5043140;28;20217;-73
2021/05/10 07:23:48;;;;;;;5.15;2.53;;;;;;;19.29;63.88;98500.41;5038906;28;20200;-73
2021/05/10 07:26:14;;;;;;;3.17;2.13;;;;;;;19.16;64.21;98509.94;5042042;28;20188;-73
2021/05/10 07:28:40;;;;;;;1.60;1.50;;;;;;;18.46;65.91;98520.38;5041489;28;20204;-73
2021/05/10 07:31:07;;;;;;;3.35;1.70;;;;;;;18.81;65.47;98522.00;5042941;28;20545;-71
2021/05/10 07:33:33;;;;;;;4.72;2.58;;;;;;;19.02;65.49;98518.81;5042873;28;20207;-72
2021/05/10 07:35:59;;;;;;;2.97;1.92;;;;;;;18.95;64.89;98520.53;5045030;28;20639;-72
2021/05/10 07:38:26;;;;;;;5.03;2.40;;;;;;;18.65;66.05;98511.06;5043901;28;20227;-73
2021/05/10 07:40:53;;;;;;;10.48;2.33;;;;;;;18.91;66.17;98521.88;5044915;28;20235;-73
2021/05/10 07:43:19;;;;;;;2.05;1.40;;;;;;;19.01;65.05;98514.38;5048350;28;20220;-75
2021/05/10 07:45:45;;;;;;;6.05;2.40;;;;;;;18.90;66.43;98518.31;5045809;28;20200;-71
2021/05/10 07:48:11;;;;;;;2.53;2.05;;;;;;;19.20;65.38;98525.97;5046022;28;20672;-71
2021/05/10 07:50:38;;;;;;;5.80;2.40;;;;;;;19.21;64.98;98514.06;5044734;28;20203;-71
2021/05/10 07:53:04;;;;;;;4.57;1.70;;;;;;;19.17;64.92;98525.31;5047179;28;20219;-73
2021/05/10 07:55:31;;;;;;;8.25;4.55;;;;;;;19.29;64.30;98525.81;5044291;28;20255;-72
2021/05/10 07:57:57;;;;;;;12.32;6.35;;;;;;;19.50;63.96;98533.47;5045147;28;20592;-70
2021/05/10 08:00:29;;;;;;;2.58;2.10;;;;;;;19.50;63.48;98535.34;5050148;28;20196;-71
2021/05/10 08:02:57;;;;;;;2.30;1.20;;;;;;;19.19;63.59;98546.94;5043380;28;20207;-72
2021/05/10 08:05:23;;;;;;;3.30;1.55;;;;;;;19.19;63.88;98546.94;5043941;28;20657;-71
2021/05/10 08:07:50;;;;;;;4.88;1.55;;;;;;;19.11;64.29;98547.81;5046850;28;20192;-72
2021/05/10 08:10:16;;;;;;;1.83;1.27;;;;;;;18.87;64.96;98551.34;5052720;28;20643;-72
2021/05/10 08:12:44;;;;;;;8.55;1.92;;;;;;;18.72;66.15;98574.78;5050191;28;20201;-72
2021/05/10 08:15:11;;;;;;;5.93;1.88;;;;;;;18.57;66.88;98585.50;5045940;28;20556;-70
2021/05/10 08:17:37;;;;;;;3.20;1.42;;;;;;;18.18;67.79;98580.56;5045125;28;20196;-72
2021/05/10 08:20:04;;;;;;;2.58;2.00;;;;;;;18.12;69.55;98589.38;5046218;28;20195;-73
2021/05/10 08:22:31;;;;;;;1.75;1.20;;;;;;;18.20;70.34;98586.69;5047041;28;20206;-72
2021/05/10 08:24:57;;;;;;;2.60;2.10;;;;;;;17.99;70.95;98602.56;5045418;28;20198;-70
2021/05/10 08:27:24;;;;;;;3.88;2.10;;;;;;;17.96;72.61;98590.13;5044151;28;20212;-70
2021/05/10 08:29:51;;;;;;;2.83;1.95;;;;;;;17.64;72.98;98605.19;5046110;28;20290;-72
2021/05/10 08:32:17;;;;;;;2.13;1.52;;;;;;;17.59;74.77;98609.41;5046289;28;20197;-72
2021/05/10 08:34:44;;;;;;;1.98;1.48;;;;;;;17.65;75.64;98598.72;5045925;28;20244;-72
2021/05/10 08:37:10;;;;;;;3.05;1.80;;;;;;;17.68;76.72;98589.38;5044166;28;20296;-72
2021/05/10 08:39:36;;;;;;;6.20;1.67;;;;;;;17.82;74.87;98588.88;5044270;28;20214;-73
2021/05/10 08:42:03;;;;;;;6.70;2.40;;;;;;;17.81;75.25;98591.69;5044290;28;20232;-71
2021/05/10 08:44:29;;;;;;;5.88;4.72;;;;;;;17.91;75.29;98596.06;5046108;28;20222;-72
2021/05/10 08:46:56;;;;;;;3.15;1.77;;;;;;;17.88;74.14;98598.25;5045305;28;20669;-72
2021/05/10 08:49:22;;;;;;;2.42;1.52;;;;;;;17.93;74.04;98593.16;5043291;28;20195;-72
2021/05/10 08:51:50;;;;;;;3.08;2.08;;;;;;;18.03;75.22;98599.38;5045938;28;20632;-71
2021/05/10 08:54:18;;;;;;;2.50;1.70;;;;;;;18.06;73.87;98598.19;5044560;28;20286;-72
2021/05/10 08:56:44;;;;;;;3.95;1.67;;;;;;;18.03;74.13;98599.38;5043825;28;20278;-72
2021/05/10 08:59:10;;;;;;;2.05;1.60;;;;;;;18.15;74.99;98594.50;5048443;28;20290;-71
2021/05/10 09:01:47;;;;;;;2.53;1.70;;;;;;;18.48;72.90;98600.13;5044375;28;20222;-70
2021/05/10 09:04:14;;;;;;;3.75;1.88;;;;;;;18.69;72.66;98605.97;5044262;28;20201;-73
2021/05/10 09:06:40;;;;;;;3.55;1.80;;;;;;;18.90;71.43;98600.13;5043159;28;20280;-71
2021/05/10 09:09:08;;;;;;;4.30;1.40;;;;;;;18.81;71.12;98590.19;5043185;28;20196;-72
2021/05/10 09:11:35;;;;;;;1.73;1.60;;;;;;;18.86;70.71;98582.38;5045074;28;20251;-72
2021/05/10 09:14:02;;;;;;;2.65;1.17;;;;;;;18.50;70.94;98604.38;5045247;28;20204;-73
2021/05/10 09:16:28;;;;;;;3.00;1.50;;;;;;;18.15;73.01;98610.00;5045157;28;20278;-72
2021/05/10 09:18:56;;;;;;;3.20;1.60;;;;;;;18.19;72.68;98614.94;5044040;28;20187;-72
2021/05/10 09:21:25;;;;;;;1.55;1.45;;;;;;;18.22;74.68;98622.78;5042808;28;20698;-71
2021/05/10 09:23:52;;;;;;;2.97;1.88;;;;;;;18.30;74.44;98631.03;5043296;28;20289;-72
2021/05/10 09:26:27;;;;;;;3.78;2.50;;;;;;;18.45;74.29;98633.13;5044338;28;20211;-71
2021/05/10 09:28:53;;;;;;;2.55;1.88;;;;;;;18.39;73.22;98641.97;5043367;28;20227;-70
2021/05/10 09:31:19;;;;;;;2.10;1.75;;;;;;;18.25;73.56;98657.06;5043066;28;20698;-70
2021/05/10 09:33:47;;;;;;;3.00;2.30;;;;;;;18.20;73.46;98664.84;5043000;28;20527;-72
2021/05/10 09:36:34;;;;;;;3.15;1.70;;;;;;;17.97;75.58;98654.47;5048291;28;20218;-71
2021/05/10 09:39:02;;;;;;;3.30;1.67;;;;;;;17.69;75.04;98670.91;5038057;28;20205;-72
2021/05/10 09:41:28;;;;;;;2.95;2.30;;;;;;;17.96;77.45;98668.28;5042349;28;20234;-70
2021/05/10 09:43:59;;;;;;;1.80;1.40;;;;;;;18.14;74.42;98650.00;5043037;28;20645;-72
2021/05/10 09:46:37;;;;;;;6.15;1.80;;;;;;;17.98;77.63;98634.41;5042634;28;20196;-72
2021/05/10 09:49:04;;;;;;;1.80;1.50;;;;;;;17.96;74.69;98636.44;5044484;28;20199;-71
2021/05/10 09:51:30;;;;;;;3.47;1.65;;;;;;;18.33;74.23;98657.94;5044365;28;20618;-73
2021/05/10 09:53:57;;;;;;;4.18;1.75;;;;;;;18.00;74.61;98656.00;5042926;28;20241;-72
2021/05/10 09:56:28;;;;;;;2.40;1.55;;;;;;;17.98;74.07;98667.09;5042403;28;20186;-72
2021/05/10 09:58:56;;;;;;;2.38;1.58;;;;;;;17.73;75.27;98674.19;5041823;28;20285;-70
2021/05/10 10:01:24;;;;;;;2.13;1.50;;;;;;;17.71;76.84;98687.09;5046847;28;20281;-71
2021/05/10 10:03:51;;;;;;;4.47;1.70;;;;;;;17.70;75.52;98690.81;5044848;28;20278;-71
2021/05/10 10:06:19;;;;;;;4.13;1.50;;;;;;;17.67;75.52;98694.69;5044191;28;20194;-72
2021/05/10 10:08:46;;;;;;;2.75;1.40;;;;;;;17.51;76.80;98689.97;5043855;28;20195;-71
2021/05/10 10:11:15;;;;;;;2.20;1.40;;;;;;;17.71;74.55;98689.81;5042265;28;20203;-70
2021/05/10 10:13:41;;;;;;;3.20;1.80;;;;;;;17.13;78.66;98696.53;5042040;28;20186;-70
2021/05/10 10:16:09;;;;;;;6.70;3.83;;;;;;;17.66;78.18;98703.00;5039549;28;20197;-72
2021/05/10 10:18:37;;;;;;;2.55;2.00;;;;;;;17.72;76.52;98714.13;5042650;28;20280;-71
2021/05/10 10:21:04;;;;;;;3.03;2.78;;;;;;;17.74;76.20;98703.09;5043765;28;20277;-72
2021/05/10 10:23:30;;;;;;;3.38;2.00;;;;;;;17.97;74.63;98698.03;5044015;28;20660;-73
2021/05/10 10:25:59;;;;;;;3.00;1.75;;;;;;;18.37;72.65;98712.97;5041317;28;20301;-73
2021/05/10 10:28:27;;;;;;;2.78;1.50;;;;;;;18.65;71.72;98716.38;5043452;28;20199;-71
2021/05/10 10:30:58;;;;;;;2.55;1.40;;;;;;;18.62;70.58;98718.59;5042573;28;20262;-72
2021/05/10 10:33:29;;;;;;;1.90;1.50;;;;;;;17.88;73.10;98718.06;5041573;28;20187;-71
2021/05/10 10:35:58;;;;;;;1.90;1.50;;;;;;;17.91;73.34;98706.88;5040133;28;20194;-72
2021/05/10 10:38:29;;;;;;;2.00;1.52;;;;;;;18.19;73.82;98717.63;5042452;28;20282;-74
2021/05/10 10:41:23;;;;;;;2.70;1.30;;;;;;;18.41;72.57;98711.66;5039469;28;20297;-73
2021/05/10 10:43:51;;;;;;;1.80;1.70;;;;;;;18.17;72.16;98716.94;5026919;28;20593;-75
2021/05/10 10:46:33;;;;;;;2.10;1.50;;;;;;;17.87;71.60;98725.38;5039810;28;20649;-72
2021/05/10 10:49:26;;;;;;;2.00;1.85;;;;;;;17.87;72.92;98728.09;5040236;28;20191;-72
2021/05/10 10:51:53;;;;;;;2.90;2.20;;;;;;;17.95;72.37;98730.03;5040661;28;20214;-75
2021/05/10 10:54:20;;;;;;;2.20;1.55;;;;;;;17.90;72.01;98733.22;5038938;28;20762;-73
2021/05/10 10:56:53;;;;;;;3.20;2.15;;;;;;;18.11;72.72;98745.66;5040543;28;20533;-73
2021/05/10 10:59:35;;;;;;;2.15;1.95;;;;;;;17.50;73.74;98753.59;5038243;28;20616;-72
2021/05/10 11:02:16;;;;;;;2.00;1.42;;;;;;;17.60;73.51;98753.50;5045035;28;20246;-73
2021/05/10 11:04:43;;;;;;;1.40;1.27;;;;;;;17.68;73.49;98764.50;5042310;28;20231;-71
2021/05/10 11:07:09;;;;;;;1.85;1.75;;;;;;;17.94;72.64;98766.44;5039558;28;20278;-71
2021/05/10 11:09:48;;;;;;;2.30;1.40;;;;;;;18.01;72.70;98764.81;5041778;28;20625;-71
2021/05/10 11:12:48;;;;;;;2.22;1.60;;;;;;;17.74;73.03;98768.44;5042968;28;20178;-72
2021/05/10 11:15:46;;;;;;;1.60;1.50;;;;;;;17.65;74.11;98770.22;5041447;28;20682;-72
2021/05/10 11:18:32;;;;;;;2.05;1.77;;;;;;;17.83;73.27;98777.59;5042484;28;20193;-74
2021/05/10 11:21:00;;;;;;;1.92;1.50;;;;;;;17.57;75.31;98786.47;5036041;28;20237;-74
2021/05/10 11:23:31;;;;;;;5.90;1.80;;;;;;;17.78;74.69;98790.78;5038859;28;20223;-73
2021/05/10 11:25:58;;;;;;;4.32;2.22;;;;;;;17.54;75.61;98780.47;5041561;28;20225;-72
2021/05/10 11:28:44;;;;;;;6.72;2.17;;;;;;;17.64;75.36;98776.69;5042291;28;20329;-73
2021/05/10 11:31:13;;;;;;;14.23;3.90;;;;;;;17.92;75.47;98782.94;5043486;28;20201;-70
2021/05/10 11:34:12;;;;;;;2.78;2.47;;;;;;;18.22;75.52;98771.78;5040252;28;20202;-72
2021/05/10 11:36:48;;;;;;;2.40;1.95;;;;;;;18.35;73.30;98766.78;5041525;28;20283;-73
2021/05/10 11:39:23;;;;;;;7.15;6.07;;;;;;;18.49;73.46;98757.16;5038676;28;20252;-72
2021/05/10 11:41:50;;;;;;;4.10;2.20;;;;;;;18.44;70.93;98751.34;5043444;28;20231;-73
2021/05/10 11:44:21;;;;;;;4.30;3.85;;;;;;;18.71;72.34;98742.16;5041626;28;20230;-72